Kezdőlap
METAR-TAF:

METAR-TAF

Repülőterek :

Curaçao, Holland Antillák

földrajzi szélesség: 12-12N, földrajzi hosszúság: 068-58W, magasság: 9 m

Jelenlegi meteorológiai megfigyelések

A jelentés 16 perccel ezelõtt készült, 11:00 UTC
Kelet-délkeleti szél 10 kt
Hőmérséklet 26°C
Páratartalom 79%
Légköri nyomás 1014 hPa
Látótávolság 10 km, vagy több
Szórványos felhőzet 4800 lábon

METAR: TNCC 211100Z AUTO 11010KT 9999 SCT048 26/22 Q1014 NOSIG

Idő: 07:16 (11:16 UTC)

Előrejelzés

A jelentés 7 órával és 46 perccel ezelõtt készült, 03:30 UTC
Az előrejelzés 21-én 06 óra UTC és 22-én 06 óra UTC között érvényes
Kelet-délkeleti szél 10 kt
Látótávolság 10 km, vagy több
Szórványos felhőzet 1800 lábon
Valószínűség 30% :
21-én 06 óra UTC és 21-én 16 óra UTC között ideiglenes
Szakadozott felhőzet 1500 lábon

TAF: TNCC 210330Z 2106/2206 11010KT 9999 SCT018 PROB30 TEMPO 2106/2116 BKN015

Meteorológiai megfigyelések és előrejelzések több, mint 4000 repülőtéren (METAR és TAF jelentéseket).

A térképen piros és sárga pontok jelzik az elérhető meteorológiai állomásokat.

Mozgassa az egeret a pont fölött, hogy megjelenjen az állomás neve.

Azután kattintson az időjárási megfigyelések és előrejelzések megtekintéséhez.

A térkép megváltoztatása: kattintson a fekete keresztel jelölt zöld gombra ráközelítéshez, a vonallal jelölt zöld gombra távolításhoz, vagy a zöld nyilakra a szomszédos térképek eléréséhez.


METAR-TAF: